sensor_id;sensor_type;location;lat;lon;timestamp;P1;durP1;ratioP1;P2;durP2;ratioP2
19739;SDS011;10027;51.066;13.768;2023-05-13T00:01:01;8.50;;;6.03;;
19739;SDS011;10027;51.066;13.768;2023-05-13T00:03:28;7.77;;;5.77;;
19739;SDS011;10027;51.066;13.768;2023-05-13T00:05:55;7.00;;;6.10;;
19739;SDS011;10027;51.066;13.768;2023-05-13T00:08:22;7.73;;;5.80;;
19739;SDS011;10027;51.066;13.768;2023-05-13T00:10:50;7.53;;;6.00;;
19739;SDS011;10027;51.066;13.768;2023-05-13T00:13:17;8.73;;;5.97;;
19739;SDS011;10027;51.066;13.768;2023-05-13T00:15:44;6.90;;;5.67;;
19739;SDS011;10027;51.066;13.768;2023-05-13T00:18:11;6.93;;;5.80;;
19739;SDS011;10027;51.066;13.768;2023-05-13T00:20:38;6.93;;;6.20;;
19739;SDS011;10027;51.066;13.768;2023-05-13T00:23:06;7.10;;;5.80;;
19739;SDS011;10027;51.066;13.768;2023-05-13T00:25:33;6.67;;;5.80;;
19739;SDS011;10027;51.066;13.768;2023-05-13T00:28:00;8.87;;;6.10;;
19739;SDS011;10027;51.066;13.768;2023-05-13T00:30:27;7.33;;;6.03;;
19739;SDS011;10027;51.066;13.768;2023-05-13T00:32:55;7.30;;;6.03;;
19739;SDS011;10027;51.066;13.768;2023-05-13T00:35:22;6.77;;;5.77;;
19739;SDS011;10027;51.066;13.768;2023-05-13T00:37:49;9.20;;;5.80;;
19739;SDS011;10027;51.066;13.768;2023-05-13T00:40:21;7.37;;;6.10;;
19739;SDS011;10027;51.066;13.768;2023-05-13T00:42:49;6.80;;;6.10;;
19739;SDS011;10027;51.066;13.768;2023-05-13T00:45:16;9.10;;;5.73;;
19739;SDS011;10027;51.066;13.768;2023-05-13T00:47:44;6.20;;;5.60;;
19739;SDS011;10027;51.066;13.768;2023-05-13T00:50:11;7.97;;;5.70;;
19739;SDS011;10027;51.066;13.768;2023-05-13T00:52:40;7.27;;;5.73;;
19739;SDS011;10027;51.066;13.768;2023-05-13T00:55:07;7.23;;;5.50;;
19739;SDS011;10027;51.066;13.768;2023-05-13T00:57:35;8.33;;;5.37;;
19739;SDS011;10027;51.066;13.768;2023-05-13T01:00:02;6.57;;;4.97;;
19739;SDS011;10027;51.066;13.768;2023-05-13T01:07:55;6.63;;;5.40;;
19739;SDS011;10027;51.066;13.768;2023-05-13T01:10:30;7.30;;;5.30;;
19739;SDS011;10027;51.066;13.768;2023-05-13T01:13:03;8.00;;;5.03;;
19739;SDS011;10027;51.066;13.768;2023-05-13T01:15:35;7.10;;;5.20;;
19739;SDS011;10027;51.066;13.768;2023-05-13T01:18:07;8.00;;;5.27;;
19739;SDS011;10027;51.066;13.768;2023-05-13T01:20:37;9.70;;;5.30;;
19739;SDS011;10027;51.066;13.768;2023-05-13T01:23:07;6.37;;;5.10;;
19739;SDS011;10027;51.066;13.768;2023-05-13T01:25:34;5.80;;;5.10;;
19739;SDS011;10027;51.066;13.768;2023-05-13T01:28:01;6.17;;;4.87;;
19739;SDS011;10027;51.066;13.768;2023-05-13T01:30:28;7.97;;;5.03;;
19739;SDS011;10027;51.066;13.768;2023-05-13T01:32:56;6.50;;;5.30;;
19739;SDS011;10027;51.066;13.768;2023-05-13T01:35:23;11.47;;;4.90;;
19739;SDS011;10027;51.066;13.768;2023-05-13T01:37:51;7.70;;;5.07;;
19739;SDS011;10027;51.066;13.768;2023-05-13T01:40:19;5.67;;;4.87;;
19739;SDS011;10027;51.066;13.768;2023-05-13T01:42:57;7.73;;;4.93;;
19739;SDS011;10027;51.066;13.768;2023-05-13T01:45:28;7.53;;;5.30;;
19739;SDS011;10027;51.066;13.768;2023-05-13T01:47:55;7.23;;;5.10;;
19739;SDS011;10027;51.066;13.768;2023-05-13T01:50:22;8.33;;;5.07;;
19739;SDS011;10027;51.066;13.768;2023-05-13T01:52:50;6.53;;;4.80;;
19739;SDS011;10027;51.066;13.768;2023-05-13T01:55:17;6.10;;;4.80;;
19739;SDS011;10027;51.066;13.768;2023-05-13T01:57:44;5.27;;;4.70;;
19739;SDS011;10027;51.066;13.768;2023-05-13T02:00:12;6.13;;;5.00;;
19739;SDS011;10027;51.066;13.768;2023-05-13T02:02:39;6.20;;;5.07;;
19739;SDS011;10027;51.066;13.768;2023-05-13T02:05:06;6.03;;;5.20;;
19739;SDS011;10027;51.066;13.768;2023-05-13T02:07:33;6.17;;;5.07;;
19739;SDS011;10027;51.066;13.768;2023-05-13T02:10:00;6.37;;;5.13;;
19739;SDS011;10027;51.066;13.768;2023-05-13T02:12:27;5.70;;;4.57;;
19739;SDS011;10027;51.066;13.768;2023-05-13T02:14:55;7.20;;;5.20;;
19739;SDS011;10027;51.066;13.768;2023-05-13T02:17:22;6.40;;;5.00;;
19739;SDS011;10027;51.066;13.768;2023-05-13T02:19:49;6.23;;;4.93;;
19739;SDS011;10027;51.066;13.768;2023-05-13T02:22:16;8.43;;;5.10;;
19739;SDS011;10027;51.066;13.768;2023-05-13T02:24:43;5.63;;;4.93;;
19739;SDS011;10027;51.066;13.768;2023-05-13T02:27:11;6.60;;;5.10;;
19739;SDS011;10027;51.066;13.768;2023-05-13T02:29:41;5.70;;;5.20;;
19739;SDS011;10027;51.066;13.768;2023-05-13T02:32:08;5.70;;;4.67;;
19739;SDS011;10027;51.066;13.768;2023-05-13T02:34:35;6.43;;;5.03;;
19739;SDS011;10027;51.066;13.768;2023-05-13T02:37:03;5.13;;;4.37;;
19739;SDS011;10027;51.066;13.768;2023-05-13T02:39:30;9.63;;;4.97;;
19739;SDS011;10027;51.066;13.768;2023-05-13T02:41:57;6.93;;;4.77;;
19739;SDS011;10027;51.066;13.768;2023-05-13T02:44:24;5.80;;;4.53;;
19739;SDS011;10027;51.066;13.768;2023-05-13T02:46:52;6.00;;;4.53;;
19739;SDS011;10027;51.066;13.768;2023-05-13T02:49:19;6.37;;;5.00;;
19739;SDS011;10027;51.066;13.768;2023-05-13T02:51:46;5.03;;;4.20;;
19739;SDS011;10027;51.066;13.768;2023-05-13T02:54:13;6.43;;;4.60;;
19739;SDS011;10027;51.066;13.768;2023-05-13T02:56:40;6.13;;;4.40;;
19739;SDS011;10027;51.066;13.768;2023-05-13T02:59:08;5.67;;;4.43;;
19739;SDS011;10027;51.066;13.768;2023-05-13T03:01:36;5.93;;;4.43;;
19739;SDS011;10027;51.066;13.768;2023-05-13T03:04:03;6.93;;;4.33;;
19739;SDS011;10027;51.066;13.768;2023-05-13T03:06:30;7.83;;;4.70;;
19739;SDS011;10027;51.066;13.768;2023-05-13T03:08:58;5.77;;;4.40;;
19739;SDS011;10027;51.066;13.768;2023-05-13T03:11:25;5.53;;;4.63;;
19739;SDS011;10027;51.066;13.768;2023-05-13T03:13:52;5.83;;;4.70;;
19739;SDS011;10027;51.066;13.768;2023-05-13T03:16:19;5.33;;;4.33;;
19739;SDS011;10027;51.066;13.768;2023-05-13T03:18:46;5.40;;;4.13;;
19739;SDS011;10027;51.066;13.768;2023-05-13T03:21:14;5.10;;;4.40;;
19739;SDS011;10027;51.066;13.768;2023-05-13T03:23:41;5.43;;;4.47;;
19739;SDS011;10027;51.066;13.768;2023-05-13T03:26:08;5.50;;;4.67;;
19739;SDS011;10027;51.066;13.768;2023-05-13T03:28:35;4.50;;;4.10;;
19739;SDS011;10027;51.066;13.768;2023-05-13T03:31:02;6.20;;;4.30;;
19739;SDS011;10027;51.066;13.768;2023-05-13T03:33:29;5.50;;;4.30;;
19739;SDS011;10027;51.066;13.768;2023-05-13T03:35:57;5.00;;;4.00;;
19739;SDS011;10027;51.066;13.768;2023-05-13T03:38:24;5.17;;;4.30;;
19739;SDS011;10027;51.066;13.768;2023-05-13T03:40:51;4.40;;;4.00;;
19739;SDS011;10027;51.066;13.768;2023-05-13T03:43:18;5.37;;;4.10;;
19739;SDS011;10027;51.066;13.768;2023-05-13T03:45:45;8.77;;;4.03;;
19739;SDS011;10027;51.066;13.768;2023-05-13T03:48:14;5.97;;;3.87;;
19739;SDS011;10027;51.066;13.768;2023-05-13T03:50:41;4.83;;;4.17;;
19739;SDS011;10027;51.066;13.768;2023-05-13T03:53:09;4.43;;;3.77;;
19739;SDS011;10027;51.066;13.768;2023-05-13T03:55:37;4.90;;;4.10;;
19739;SDS011;10027;51.066;13.768;2023-05-13T03:58:10;5.47;;;4.03;;
19739;SDS011;10027;51.066;13.768;2023-05-13T04:00:39;4.90;;;4.30;;
19739;SDS011;10027;51.066;13.768;2023-05-13T04:03:06;6.30;;;4.30;;
19739;SDS011;10027;51.066;13.768;2023-05-13T04:05:34;5.00;;;4.40;;
19739;SDS011;10027;51.066;13.768;2023-05-13T04:08:01;5.40;;;4.47;;
19739;SDS011;10027;51.066;13.768;2023-05-13T04:10:28;5.40;;;4.27;;
19739;SDS011;10027;51.066;13.768;2023-05-13T04:12:55;6.00;;;4.20;;
19739;SDS011;10027;51.066;13.768;2023-05-13T04:15:23;6.17;;;4.30;;
19739;SDS011;10027;51.066;13.768;2023-05-13T04:17:50;5.30;;;4.47;;
19739;SDS011;10027;51.066;13.768;2023-05-13T04:20:19;5.23;;;4.07;;
19739;SDS011;10027;51.066;13.768;2023-05-13T04:22:46;4.80;;;4.30;;
19739;SDS011;10027;51.066;13.768;2023-05-13T04:25:14;7.77;;;5.03;;
19739;SDS011;10027;51.066;13.768;2023-05-13T04:27:41;5.70;;;4.27;;
19739;SDS011;10027;51.066;13.768;2023-05-13T04:30:08;4.87;;;4.37;;
19739;SDS011;10027;51.066;13.768;2023-05-13T04:32:36;5.40;;;4.67;;
19739;SDS011;10027;51.066;13.768;2023-05-13T04:35:07;5.13;;;4.30;;
19739;SDS011;10027;51.066;13.768;2023-05-13T04:37:34;5.37;;;4.40;;
19739;SDS011;10027;51.066;13.768;2023-05-13T04:40:01;5.40;;;4.60;;
19739;SDS011;10027;51.066;13.768;2023-05-13T04:42:29;6.17;;;4.20;;
19739;SDS011;10027;51.066;13.768;2023-05-13T04:44:56;5.00;;;4.30;;
19739;SDS011;10027;51.066;13.768;2023-05-13T04:47:23;5.67;;;4.40;;
19739;SDS011;10027;51.066;13.768;2023-05-13T04:49:50;5.70;;;3.73;;
19739;SDS011;10027;51.066;13.768;2023-05-13T04:52:18;4.87;;;4.30;;
19739;SDS011;10027;51.066;13.768;2023-05-13T04:54:45;5.17;;;4.37;;
19739;SDS011;10027;51.066;13.768;2023-05-13T04:57:12;8.33;;;4.33;;
19739;SDS011;10027;51.066;13.768;2023-05-13T04:59:39;4.80;;;4.30;;
19739;SDS011;10027;51.066;13.768;2023-05-13T05:02:07;5.30;;;4.17;;
19739;SDS011;10027;51.066;13.768;2023-05-13T05:04:34;4.93;;;4.17;;
19739;SDS011;10027;51.066;13.768;2023-05-13T05:07:01;8.33;;;4.50;;
19739;SDS011;10027;51.066;13.768;2023-05-13T05:09:28;5.50;;;4.33;;
19739;SDS011;10027;51.066;13.768;2023-05-13T05:11:55;5.23;;;4.27;;
19739;SDS011;10027;51.066;13.768;2023-05-13T05:14:22;5.93;;;4.30;;
19739;SDS011;10027;51.066;13.768;2023-05-13T05:16:50;4.87;;;4.20;;
19739;SDS011;10027;51.066;13.768;2023-05-13T05:19:17;5.17;;;4.40;;
19739;SDS011;10027;51.066;13.768;2023-05-13T05:21:52;7.00;;;4.40;;
19739;SDS011;10027;51.066;13.768;2023-05-13T05:24:19;5.03;;;4.33;;
19739;SDS011;10027;51.066;13.768;2023-05-13T05:26:46;5.37;;;4.23;;
19739;SDS011;10027;51.066;13.768;2023-05-13T05:29:13;4.80;;;4.20;;
19739;SDS011;10027;51.066;13.768;2023-05-13T05:31:40;8.70;;;4.20;;
19739;SDS011;10027;51.066;13.768;2023-05-13T05:34:07;5.03;;;4.10;;
19739;SDS011;10027;51.066;13.768;2023-05-13T05:36:35;8.93;;;4.10;;
19739;SDS011;10027;51.066;13.768;2023-05-13T05:39:03;4.43;;;4.03;;
19739;SDS011;10027;51.066;13.768;2023-05-13T05:41:31;4.70;;;4.20;;
19739;SDS011;10027;51.066;13.768;2023-05-13T05:43:58;4.70;;;3.90;;
19739;SDS011;10027;51.066;13.768;2023-05-13T05:46:25;5.53;;;4.07;;
19739;SDS011;10027;51.066;13.768;2023-05-13T05:48:52;4.30;;;3.87;;
19739;SDS011;10027;51.066;13.768;2023-05-13T05:51:19;4.90;;;4.07;;
19739;SDS011;10027;51.066;13.768;2023-05-13T05:53:47;5.47;;;4.00;;
19739;SDS011;10027;51.066;13.768;2023-05-13T05:56:14;5.60;;;4.03;;
19739;SDS011;10027;51.066;13.768;2023-05-13T05:58:41;4.90;;;4.07;;
19739;SDS011;10027;51.066;13.768;2023-05-13T06:01:08;4.37;;;3.97;;
19739;SDS011;10027;51.066;13.768;2023-05-13T06:03:35;4.70;;;3.77;;
19739;SDS011;10027;51.066;13.768;2023-05-13T06:06:03;5.27;;;3.80;;
19739;SDS011;10027;51.066;13.768;2023-05-13T06:08:30;4.50;;;3.80;;
19739;SDS011;10027;51.066;13.768;2023-05-13T06:10:57;5.37;;;3.80;;
19739;SDS011;10027;51.066;13.768;2023-05-13T06:13:25;5.67;;;4.13;;
19739;SDS011;10027;51.066;13.768;2023-05-13T06:15:52;5.63;;;4.00;;
19739;SDS011;10027;51.066;13.768;2023-05-13T06:18:19;4.97;;;3.73;;
19739;SDS011;10027;51.066;13.768;2023-05-13T06:20:46;4.43;;;3.70;;
19739;SDS011;10027;51.066;13.768;2023-05-13T06:23:14;3.93;;;3.53;;
19739;SDS011;10027;51.066;13.768;2023-05-13T06:25:41;4.10;;;3.70;;
19739;SDS011;10027;51.066;13.768;2023-05-13T06:28:09;5.77;;;3.80;;
19739;SDS011;10027;51.066;13.768;2023-05-13T06:30:37;5.90;;;4.03;;
19739;SDS011;10027;51.066;13.768;2023-05-13T06:33:04;5.07;;;3.70;;
19739;SDS011;10027;51.066;13.768;2023-05-13T06:35:35;4.17;;;3.77;;
19739;SDS011;10027;51.066;13.768;2023-05-13T06:38:03;5.90;;;4.07;;
19739;SDS011;10027;51.066;13.768;2023-05-13T06:40:30;5.33;;;3.90;;
19739;SDS011;10027;51.066;13.768;2023-05-13T06:42:57;4.50;;;3.73;;
19739;SDS011;10027;51.066;13.768;2023-05-13T06:45:24;6.73;;;3.73;;
19739;SDS011;10027;51.066;13.768;2023-05-13T06:47:51;4.53;;;3.63;;
19739;SDS011;10027;51.066;13.768;2023-05-13T06:50:19;4.20;;;3.50;;
19739;SDS011;10027;51.066;13.768;2023-05-13T06:52:46;3.90;;;3.50;;
19739;SDS011;10027;51.066;13.768;2023-05-13T06:55:13;4.70;;;3.67;;
19739;SDS011;10027;51.066;13.768;2023-05-13T06:57:43;3.57;;;3.23;;
19739;SDS011;10027;51.066;13.768;2023-05-13T07:00:12;3.97;;;3.30;;
19739;SDS011;10027;51.066;13.768;2023-05-13T07:02:39;4.73;;;3.27;;
19739;SDS011;10027;51.066;13.768;2023-05-13T07:05:07;3.73;;;3.30;;
19739;SDS011;10027;51.066;13.768;2023-05-13T07:07:36;4.87;;;3.20;;
19739;SDS011;10027;51.066;13.768;2023-05-13T07:10:04;3.23;;;2.90;;
19739;SDS011;10027;51.066;13.768;2023-05-13T07:12:31;3.40;;;3.10;;
19739;SDS011;10027;51.066;13.768;2023-05-13T07:14:58;4.20;;;3.07;;
19739;SDS011;10027;51.066;13.768;2023-05-13T07:17:25;3.83;;;3.10;;
19739;SDS011;10027;51.066;13.768;2023-05-13T07:19:53;4.13;;;2.63;;
19739;SDS011;10027;51.066;13.768;2023-05-13T07:22:20;3.27;;;2.53;;
19739;SDS011;10027;51.066;13.768;2023-05-13T07:24:47;3.77;;;2.60;;
19739;SDS011;10027;51.066;13.768;2023-05-13T07:27:14;3.63;;;2.70;;
19739;SDS011;10027;51.066;13.768;2023-05-13T07:29:42;2.73;;;2.50;;
19739;SDS011;10027;51.066;13.768;2023-05-13T07:32:09;2.47;;;2.27;;
19739;SDS011;10027;51.066;13.768;2023-05-13T07:34:36;2.50;;;2.30;;
19739;SDS011;10027;51.066;13.768;2023-05-13T07:37:04;2.90;;;2.20;;
19739;SDS011;10027;51.066;13.768;2023-05-13T07:39:31;2.60;;;2.40;;
19739;SDS011;10027;51.066;13.768;2023-05-13T07:41:58;2.40;;;2.20;;
19739;SDS011;10027;51.066;13.768;2023-05-13T07:44:25;2.63;;;2.37;;
19739;SDS011;10027;51.066;13.768;2023-05-13T07:46:52;3.20;;;2.73;;
19739;SDS011;10027;51.066;13.768;2023-05-13T07:49:20;2.30;;;2.10;;
19739;SDS011;10027;51.066;13.768;2023-05-13T07:51:47;2.80;;;2.03;;
19739;SDS011;10027;51.066;13.768;2023-05-13T07:54:14;2.40;;;2.20;;
19739;SDS011;10027;51.066;13.768;2023-05-13T07:56:41;3.20;;;2.00;;
19739;SDS011;10027;51.066;13.768;2023-05-13T07:59:09;2.90;;;2.60;;
19739;SDS011;10027;51.066;13.768;2023-05-13T08:01:36;2.30;;;2.10;;
19739;SDS011;10027;51.066;13.768;2023-05-13T08:04:04;2.87;;;2.40;;
19739;SDS011;10027;51.066;13.768;2023-05-13T08:06:31;2.43;;;2.23;;
19739;SDS011;10027;51.066;13.768;2023-05-13T08:08:58;2.60;;;2.27;;
19739;SDS011;10027;51.066;13.768;2023-05-13T08:11:27;2.30;;;2.10;;
19739;SDS011;10027;51.066;13.768;2023-05-13T08:13:54;3.77;;;2.20;;
19739;SDS011;10027;51.066;13.768;2023-05-13T08:16:22;2.30;;;2.10;;
19739;SDS011;10027;51.066;13.768;2023-05-13T08:18:49;2.40;;;2.20;;
19739;SDS011;10027;51.066;13.768;2023-05-13T08:21:16;4.63;;;2.50;;
19739;SDS011;10027;51.066;13.768;2023-05-13T08:23:43;3.03;;;2.73;;
19739;SDS011;10027;51.066;13.768;2023-05-13T08:26:11;2.45;;;2.25;;
19739;SDS011;10027;51.066;13.768;2023-05-13T08:28:38;2.92;;;2.30;;
19739;SDS011;10027;51.066;13.768;2023-05-13T08:31:09;2.42;;;2.30;;
19739;SDS011;10027;51.066;13.768;2023-05-13T08:33:36;2.47;;;2.28;;
19739;SDS011;10027;51.066;13.768;2023-05-13T08:36:05;4.57;;;2.63;;
19739;SDS011;10027;51.066;13.768;2023-05-13T08:38:32;2.97;;;2.75;;
19739;SDS011;10027;51.066;13.768;2023-05-13T08:41:02;2.63;;;2.42;;
19739;SDS011;10027;51.066;13.768;2023-05-13T08:43:30;4.15;;;2.38;;
19739;SDS011;10027;51.066;13.768;2023-05-13T08:45:59;2.80;;;2.60;;
19739;SDS011;10027;51.066;13.768;2023-05-13T08:48:29;2.95;;;2.60;;
19739;SDS011;10027;51.066;13.768;2023-05-13T08:50:57;3.17;;;2.72;;
19739;SDS011;10027;51.066;13.768;2023-05-13T08:53:26;3.65;;;3.00;;
19739;SDS011;10027;51.066;13.768;2023-05-13T08:55:53;4.07;;;3.17;;
19739;SDS011;10027;51.066;13.768;2023-05-13T08:58:20;4.28;;;2.88;;
19739;SDS011;10027;51.066;13.768;2023-05-13T09:00:48;3.17;;;2.97;;
19739;SDS011;10027;51.066;13.768;2023-05-13T09:03:15;3.25;;;2.95;;
19739;SDS011;10027;51.066;13.768;2023-05-13T09:05:42;2.90;;;2.70;;
19739;SDS011;10027;51.066;13.768;2023-05-13T09:08:09;3.40;;;3.10;;
19739;SDS011;10027;51.066;13.768;2023-05-13T09:10:37;4.10;;;3.08;;
19739;SDS011;10027;51.066;13.768;2023-05-13T09:13:05;3.03;;;2.50;;
19739;SDS011;10027;51.066;13.768;2023-05-13T09:15:32;3.20;;;2.90;;
19739;SDS011;10027;51.066;13.768;2023-05-13T09:18:03;2.77;;;2.50;;
19739;SDS011;10027;51.066;13.768;2023-05-13T09:20:32;2.97;;;2.77;;
19739;SDS011;10027;51.066;13.768;2023-05-13T09:23:04;3.30;;;2.93;;
19739;SDS011;10027;51.066;13.768;2023-05-13T09:25:31;2.90;;;2.60;;
19739;SDS011;10027;51.066;13.768;2023-05-13T09:27:59;3.10;;;2.57;;
19739;SDS011;10027;51.066;13.768;2023-05-13T09:30:34;2.73;;;2.50;;
19739;SDS011;10027;51.066;13.768;2023-05-13T09:33:14;3.00;;;2.70;;
19739;SDS011;10027;51.066;13.768;2023-05-13T09:35:43;3.67;;;2.80;;
19739;SDS011;10027;51.066;13.768;2023-05-13T09:38:21;3.77;;;2.90;;
19739;SDS011;10027;51.066;13.768;2023-05-13T09:40:57;3.07;;;2.77;;
19739;SDS011;10027;51.066;13.768;2023-05-13T09:43:30;3.13;;;2.83;;
19739;SDS011;10027;51.066;13.768;2023-05-13T09:46:01;3.10;;;2.80;;
19739;SDS011;10027;51.066;13.768;2023-05-13T09:48:30;3.07;;;2.73;;
19739;SDS011;10027;51.066;13.768;2023-05-13T09:50:57;2.70;;;2.50;;
19739;SDS011;10027;51.066;13.768;2023-05-13T09:53:25;2.80;;;2.60;;
19739;SDS011;10027;51.066;13.768;2023-05-13T09:55:53;2.80;;;2.60;;
19739;SDS011;10027;51.066;13.768;2023-05-13T09:58:21;2.80;;;2.60;;
19739;SDS011;10027;51.066;13.768;2023-05-13T10:00:50;3.13;;;2.80;;
19739;SDS011;10027;51.066;13.768;2023-05-13T10:03:17;3.80;;;2.90;;
19739;SDS011;10027;51.066;13.768;2023-05-13T10:05:45;3.10;;;2.80;;
19739;SDS011;10027;51.066;13.768;2023-05-13T10:08:13;3.43;;;2.90;;
19739;SDS011;10027;51.066;13.768;2023-05-13T10:10:41;3.93;;;3.00;;
19739;SDS011;10027;51.066;13.768;2023-05-13T10:13:13;3.33;;;2.80;;
19739;SDS011;10027;51.066;13.768;2023-05-13T10:15:50;3.20;;;2.90;;
19739;SDS011;10027;51.066;13.768;2023-05-13T10:18:18;5.10;;;3.23;;
19739;SDS011;10027;51.066;13.768;2023-05-13T10:20:45;3.00;;;2.80;;
19739;SDS011;10027;51.066;13.768;2023-05-13T10:23:19;3.93;;;2.87;;
19739;SDS011;10027;51.066;13.768;2023-05-13T10:25:46;2.80;;;2.60;;
19739;SDS011;10027;51.066;13.768;2023-05-13T10:28:13;2.97;;;2.77;;
19739;SDS011;10027;51.066;13.768;2023-05-13T10:30:42;3.37;;;3.07;;
19739;SDS011;10027;51.066;13.768;2023-05-13T10:33:10;3.40;;;2.97;;
19739;SDS011;10027;51.066;13.768;2023-05-13T10:35:37;3.37;;;2.90;;
19739;SDS011;10027;51.066;13.768;2023-05-13T10:38:09;4.10;;;2.80;;
19739;SDS011;10027;51.066;13.768;2023-05-13T10:43:15;3.63;;;2.77;;
19739;SDS011;10027;51.066;13.768;2023-05-13T10:45:44;3.33;;;2.90;;
19739;SDS011;10027;51.066;13.768;2023-05-13T10:48:12;3.40;;;3.10;;
19739;SDS011;10027;51.066;13.768;2023-05-13T10:50:49;3.73;;;2.67;;
19739;SDS011;10027;51.066;13.768;2023-05-13T10:53:23;3.83;;;2.80;;
19739;SDS011;10027;51.066;13.768;2023-05-13T10:55:52;3.97;;;2.97;;
19739;SDS011;10027;51.066;13.768;2023-05-13T10:58:21;3.90;;;2.87;;
19739;SDS011;10027;51.066;13.768;2023-05-13T11:00:58;3.40;;;3.10;;
19739;SDS011;10027;51.066;13.768;2023-05-13T11:03:38;3.60;;;2.90;;
19739;SDS011;10027;51.066;13.768;2023-05-13T11:08:40;4.07;;;3.43;;
19739;SDS011;10027;51.066;13.768;2023-05-13T11:11:19;3.40;;;3.10;;
19739;SDS011;10027;51.066;13.768;2023-05-13T11:13:49;3.53;;;3.17;;
19739;SDS011;10027;51.066;13.768;2023-05-13T11:16:16;3.70;;;2.90;;
19739;SDS011;10027;51.066;13.768;2023-05-13T11:18:43;4.70;;;3.50;;
19739;SDS011;10027;51.066;13.768;2023-05-13T11:21:11;3.67;;;3.20;;
19739;SDS011;10027;51.066;13.768;2023-05-13T11:26:18;3.17;;;2.90;;
19739;SDS011;10027;51.066;13.768;2023-05-13T11:28:56;3.03;;;2.73;;
19739;SDS011;10027;51.066;13.768;2023-05-13T11:31:24;3.70;;;2.97;;
19739;SDS011;10027;51.066;13.768;2023-05-13T11:34:06;5.20;;;3.30;;
19739;SDS011;10027;51.066;13.768;2023-05-13T11:36:37;4.23;;;3.20;;
19739;SDS011;10027;51.066;13.768;2023-05-13T11:39:39;3.10;;;2.80;;
19739;SDS011;10027;51.066;13.768;2023-05-13T11:41:59;3.37;;;3.00;;
19739;SDS011;10027;51.066;13.768;2023-05-13T11:44:27;5.07;;;3.27;;
19739;SDS011;10027;51.066;13.768;2023-05-13T11:46:58;3.20;;;2.87;;
19739;SDS011;10027;51.066;13.768;2023-05-13T11:52:05;3.00;;;2.77;;
19739;SDS011;10027;51.066;13.768;2023-05-13T11:54:39;2.80;;;2.20;;
19739;SDS011;10027;51.066;13.768;2023-05-13T11:57:21;2.87;;;2.30;;
19739;SDS011;10027;51.066;13.768;2023-05-13T12:02:25;3.10;;;2.10;;
19739;SDS011;10027;51.066;13.768;2023-05-13T12:04:53;3.10;;;2.00;;
19739;SDS011;10027;51.066;13.768;2023-05-13T12:07:24;2.77;;;2.00;;
19739;SDS011;10027;51.066;13.768;2023-05-13T12:09:52;2.27;;;2.07;;
19739;SDS011;10027;51.066;13.768;2023-05-13T12:12:19;2.30;;;2.10;;
19739;SDS011;10027;51.066;13.768;2023-05-13T12:14:47;3.57;;;2.13;;
19739;SDS011;10027;51.066;13.768;2023-05-13T12:17:18;2.10;;;1.90;;
19739;SDS011;10027;51.066;13.768;2023-05-13T12:22:32;2.17;;;2.07;;
19739;SDS011;10027;51.066;13.768;2023-05-13T12:25:01;2.50;;;2.30;;
19739;SDS011;10027;51.066;13.768;2023-05-13T12:27:51;2.17;;;1.97;;
19739;SDS011;10027;51.066;13.768;2023-05-13T12:30:18;2.67;;;2.13;;
19739;SDS011;10027;51.066;13.768;2023-05-13T12:32:46;2.20;;;2.00;;
19739;SDS011;10027;51.066;13.768;2023-05-13T12:35:13;2.00;;;1.90;;
19739;SDS011;10027;51.066;13.768;2023-05-13T12:37:40;2.77;;;2.40;;
19739;SDS011;10027;51.066;13.768;2023-05-13T12:40:11;2.07;;;1.97;;
19739;SDS011;10027;51.066;13.768;2023-05-13T12:42:43;2.20;;;2.00;;
19739;SDS011;10027;51.066;13.768;2023-05-13T12:45:10;2.00;;;1.80;;
19739;SDS011;10027;51.066;13.768;2023-05-13T12:47:48;1.90;;;1.80;;
19739;SDS011;10027;51.066;13.768;2023-05-13T12:50:15;2.40;;;2.20;;
19739;SDS011;10027;51.066;13.768;2023-05-13T12:52:42;2.00;;;1.90;;
19739;SDS011;10027;51.066;13.768;2023-05-13T12:55:09;2.07;;;1.97;;
19739;SDS011;10027;51.066;13.768;2023-05-13T12:57:41;2.40;;;2.20;;
19739;SDS011;10027;51.066;13.768;2023-05-13T13:00:08;2.77;;;2.20;;
19739;SDS011;10027;51.066;13.768;2023-05-13T13:02:38;2.13;;;1.90;;
19739;SDS011;10027;51.066;13.768;2023-05-13T13:05:06;2.03;;;1.93;;
19739;SDS011;10027;51.066;13.768;2023-05-13T13:07:34;2.20;;;2.00;;
19739;SDS011;10027;51.066;13.768;2023-05-13T13:10:06;2.43;;;2.23;;
19739;SDS011;10027;51.066;13.768;2023-05-13T13:12:33;2.20;;;2.07;;
19739;SDS011;10027;51.066;13.768;2023-05-13T13:15:00;2.33;;;2.03;;
19739;SDS011;10027;51.066;13.768;2023-05-13T13:17:28;3.63;;;2.33;;
19739;SDS011;10027;51.066;13.768;2023-05-13T13:19:55;2.43;;;2.23;;
19739;SDS011;10027;51.066;13.768;2023-05-13T13:22:22;2.30;;;2.10;;
19739;SDS011;10027;51.066;13.768;2023-05-13T13:24:49;2.37;;;2.17;;
19739;SDS011;10027;51.066;13.768;2023-05-13T13:27:16;2.43;;;2.23;;
19739;SDS011;10027;51.066;13.768;2023-05-13T13:29:44;2.57;;;2.37;;
19739;SDS011;10027;51.066;13.768;2023-05-13T13:32:11;3.57;;;2.23;;
19739;SDS011;10027;51.066;13.768;2023-05-13T13:34:38;2.47;;;2.20;;
19739;SDS011;10027;51.066;13.768;2023-05-13T13:37:05;3.33;;;2.30;;
19739;SDS011;10027;51.066;13.768;2023-05-13T13:39:33;2.57;;;2.10;;
19739;SDS011;10027;51.066;13.768;2023-05-13T13:42:00;2.47;;;2.17;;
19739;SDS011;10027;51.066;13.768;2023-05-13T13:44:30;2.50;;;2.20;;
19739;SDS011;10027;51.066;13.768;2023-05-13T13:46:57;3.17;;;2.30;;
19739;SDS011;10027;51.066;13.768;2023-05-13T13:49:24;2.40;;;2.20;;
19739;SDS011;10027;51.066;13.768;2023-05-13T13:51:51;2.37;;;2.17;;
19739;SDS011;10027;51.066;13.768;2023-05-13T13:54:19;2.20;;;2.00;;
19739;SDS011;10027;51.066;13.768;2023-05-13T13:56:46;2.67;;;2.33;;
19739;SDS011;10027;51.066;13.768;2023-05-13T13:59:13;2.93;;;2.37;;
19739;SDS011;10027;51.066;13.768;2023-05-13T14:01:40;2.33;;;2.10;;
19739;SDS011;10027;51.066;13.768;2023-05-13T14:04:09;2.83;;;2.27;;
19739;SDS011;10027;51.066;13.768;2023-05-13T14:06:37;3.73;;;2.33;;
19739;SDS011;10027;51.066;13.768;2023-05-13T14:09:04;2.60;;;2.40;;
19739;SDS011;10027;51.066;13.768;2023-05-13T14:11:32;2.67;;;2.47;;
19739;SDS011;10027;51.066;13.768;2023-05-13T14:13:59;2.90;;;2.60;;
19739;SDS011;10027;51.066;13.768;2023-05-13T14:16:26;2.67;;;2.40;;
19739;SDS011;10027;51.066;13.768;2023-05-13T14:18:53;2.97;;;2.67;;
19739;SDS011;10027;51.066;13.768;2023-05-13T14:21:21;2.77;;;2.30;;
19739;SDS011;10027;51.066;13.768;2023-05-13T14:23:48;2.33;;;2.13;;
19739;SDS011;10027;51.066;13.768;2023-05-13T14:26:15;2.43;;;2.23;;
19739;SDS011;10027;51.066;13.768;2023-05-13T14:28:42;3.90;;;2.70;;
19739;SDS011;10027;51.066;13.768;2023-05-13T14:31:09;2.40;;;2.20;;
19739;SDS011;10027;51.066;13.768;2023-05-13T14:33:37;2.43;;;2.23;;
19739;SDS011;10027;51.066;13.768;2023-05-13T14:36:04;2.60;;;2.40;;
19739;SDS011;10027;51.066;13.768;2023-05-13T14:38:33;2.70;;;2.50;;
19739;SDS011;10027;51.066;13.768;2023-05-13T14:41:00;3.40;;;2.50;;
19739;SDS011;10027;51.066;13.768;2023-05-13T14:43:27;3.00;;;2.67;;
19739;SDS011;10027;51.066;13.768;2023-05-13T14:45:54;4.43;;;2.60;;
19739;SDS011;10027;51.066;13.768;2023-05-13T14:48:22;2.90;;;2.60;;
19739;SDS011;10027;51.066;13.768;2023-05-13T14:50:49;2.33;;;2.13;;
19739;SDS011;10027;51.066;13.768;2023-05-13T14:53:17;2.70;;;2.40;;
19739;SDS011;10027;51.066;13.768;2023-05-13T14:55:44;4.07;;;2.90;;
19739;SDS011;10027;51.066;13.768;2023-05-13T14:58:11;2.77;;;2.57;;
19739;SDS011;10027;51.066;13.768;2023-05-13T15:00:38;3.00;;;2.63;;